Time;durP1;ratioP1;P1;durP2;ratioP2;P2;SDS_P1;SDS_P2;PMS_P1;PMS_P2;Temp;Humidity;BMP_temperature;BMP_pressure;BME280_temperature;BME280_humidity;BME280_pressure;Samples;Min_cycle;Max_cycle;Signal;HPM_P1;HPM_P2
2023/08/21 00:02:27;;;;;;;9.15;5.78;;;;;;;23.28;100.00;99250.63;5111209;28;20027;-75
2023/08/21 00:04:53;;;;;;;9.90;5.97;;;;;;;23.26;100.00;99261.94;5103449;28;20106;-75
2023/08/21 00:07:18;;;;;;;10.23;6.03;;;;;;;23.22;100.00;99265.53;5108049;28;20110;-75
2023/08/21 00:09:43;;;;;;;7.88;5.78;;;;;;;23.18;100.00;99266.06;5091931;28;20027;-73
2023/08/21 00:12:09;;;;;;;9.82;6.10;;;;;;;23.16;100.00;99265.53;5091230;28;20119;-75
2023/08/21 00:14:34;;;;;;;8.48;6.00;;;;;;;23.10;100.00;99255.56;5111330;28;20031;-73
2023/08/21 00:16:59;;;;;;;10.50;5.13;;;;;;;23.11;100.00;99265.53;5102499;28;20027;-75
2023/08/21 00:19:25;;;;;;;13.10;5.60;;;;;;;23.00;100.00;99265.78;5102465;28;20479;-75
2023/08/21 00:21:51;;;;;;;10.68;5.47;;;;;;;23.00;100.00;99269.38;5100672;28;20031;-75
2023/08/21 00:24:16;;;;;;;9.52;6.07;;;;;;;22.94;100.00;99264.91;5107549;28;20031;-75
2023/08/21 00:26:41;;;;;;;10.45;5.60;;;;;;;22.97;100.00;99270.75;5114070;28;20354;-74
2023/08/21 00:29:07;;;;;;;9.52;5.93;;;;;;;22.89;100.00;99257.44;5089166;27;22359;-75
2023/08/21 00:31:32;;;;;;;8.75;5.72;;;;;;;22.88;100.00;99253.03;5094274;27;20028;-75
2023/08/21 00:33:57;;;;;;;7.22;5.07;;;;;;;22.84;100.00;99265.72;5109035;28;20084;-75
2023/08/21 00:36:22;;;;;;;7.38;5.15;;;;;;;22.75;100.00;99267.38;5079534;28;20435;-75
2023/08/21 00:38:48;;;;;;;11.43;4.90;;;;;;;22.70;100.00;99270.09;5103253;27;20427;-74
2023/08/21 00:41:13;;;;;;;10.02;5.38;;;;;;;22.59;100.00;99263.75;5112999;27;20034;-74
2023/08/21 00:43:39;;;;;;;10.25;6.43;;;;;;;22.56;100.00;99257.91;5094967;27;20098;-75
2023/08/21 00:46:05;;;;;;;9.80;6.60;;;;;;;22.53;100.00;99265.66;5095911;28;20144;-75
2023/08/21 00:48:31;;;;;;;9.85;6.43;;;;;;;22.54;100.00;99261.78;5113044;27;20031;-75
2023/08/21 00:50:57;;;;;;;10.70;5.70;;;;;;;22.52;100.00;99258.47;5114946;27;20032;-74
2023/08/21 00:53:23;;;;;;;11.50;6.28;;;;;;;22.50;100.00;99252.38;5104354;28;20409;-74
2023/08/21 00:55:49;;;;;;;9.65;6.78;;;;;;;22.54;100.00;99261.78;5114582;27;20028;-75
2023/08/21 00:58:14;;;;;;;8.70;6.10;;;;;;;22.46;100.00;99251.28;5095943;28;20384;-75
2023/08/21 01:00:41;;;;;;;7.32;5.30;;;;;;;22.57;100.00;99254.91;5106797;27;20380;-75
2023/08/21 01:03:06;;;;;;;7.93;5.15;;;;;;;22.52;100.00;99255.69;5107232;28;20039;-74
2023/08/21 01:05:33;;;;;;;9.27;5.60;;;;;;;22.55;100.00;99254.34;5096045;28;20023;-75
2023/08/21 01:08:11;;;;;;;14.55;5.30;;;;;;;22.44;100.00;99244.38;5115119;28;20080;-74
2023/08/21 01:10:52;;;;;;;8.50;5.38;;;;;;;22.39;100.00;99245.19;5116692;27;20020;-74
2023/08/21 01:13:23;;;;;;;7.55;5.40;;;;;;;22.45;100.00;99266.19;5095370;27;20026;-75
2023/08/21 01:15:52;;;;;;;8.40;5.95;;;;;;;22.39;100.00;99264.47;5088665;28;20028;-75
2023/08/21 01:18:19;;;;;;;8.95;5.93;;;;;;;22.34;100.00;99250.69;5106115;28;20126;-75
2023/08/21 01:20:45;;;;;;;8.25;5.82;;;;;;;22.26;100.00;99253.94;5095332;28;20118;-75
2023/08/21 01:23:29;;;;;;;9.05;5.63;;;;;;;22.13;100.00;99252.47;5114552;27;20401;-75
2023/08/21 01:25:55;;;;;;;9.43;5.60;;;;;;;22.00;100.00;99262.06;5107286;27;20031;-75
2023/08/21 01:28:20;;;;;;;7.68;5.60;;;;;;;21.98;100.00;99258.75;5105441;27;20315;-74
2023/08/21 01:30:48;;;;;;;9.55;5.60;;;;;;;22.09;100.00;99262.41;5088328;28;20115;-75
2023/08/21 01:33:15;;;;;;;9.57;5.63;;;;;;;21.99;100.00;99265.91;5093592;28;20035;-75
2023/08/21 01:35:40;;;;;;;7.20;5.40;;;;;;;21.94;100.00;99257.63;5105221;28;20380;-75
2023/08/21 01:38:06;;;;;;;10.35;5.53;;;;;;;21.99;100.00;99260.41;5114194;27;20027;-75
2023/08/21 01:40:32;;;;;;;6.05;4.80;;;;;;;21.93;100.00;99255.97;5112231;27;20030;-73
2023/08/21 01:42:57;;;;;;;6.82;5.28;;;;;;;21.95;100.00;99262.03;5095013;28;20027;-76
2023/08/21 01:45:22;;;;;;;7.65;5.57;;;;;;;21.80;100.00;99261.97;5113408;27;20444;-75
2023/08/21 01:47:48;;;;;;;11.35;5.65;;;;;;;21.73;100.00;99266.88;5114361;22;20068;-75
2023/08/21 01:50:13;;;;;;;7.10;5.40;;;;;;;21.56;100.00;99250.47;5097059;28;20031;-75
2023/08/21 01:52:38;;;;;;;8.23;5.50;;;;;;;21.62;100.00;99255.78;5097333;28;20043;-76
2023/08/21 01:55:07;;;;;;;11.65;5.97;;;;;;;21.64;100.00;99261.00;5094822;28;20032;-75
2023/08/21 01:57:33;;;;;;;7.30;5.70;;;;;;;21.42;100.00;99236.34;5088276;28;20023;-75
2023/08/21 01:59:58;;;;;;;8.70;5.80;;;;;;;21.39;100.00;99223.13;5095122;28;20031;-76
2023/08/21 02:02:23;;;;;;;10.35;5.50;;;;;;;21.44;100.00;99231.41;5104469;28;20035;-74
2023/08/21 02:04:49;;;;;;;12.30;6.50;;;;;;;21.43;100.00;99230.59;5093132;28;20047;-75
2023/08/21 02:07:14;;;;;;;8.10;5.57;;;;;;;21.34;100.00;99225.81;5105928;28;20101;-75
2023/08/21 02:09:39;;;;;;;11.00;5.47;;;;;;;21.29;100.00;99229.34;5110480;27;20134;-75
2023/08/21 02:12:05;;;;;;;15.00;6.32;;;;;;;21.06;100.00;99202.19;5088631;28;20028;-75
2023/08/21 02:14:30;;;;;;;9.52;5.63;;;;;;;21.43;100.00;99249.88;5094907;28;20020;-75
2023/08/21 02:16:55;;;;;;;9.18;6.03;;;;;;;21.39;100.00;99248.72;5091264;28;20076;-74
2023/08/21 02:19:21;;;;;;;8.80;5.53;;;;;;;21.47;100.00;99257.59;5096326;28;20020;-74
2023/08/21 02:21:46;;;;;;;8.32;5.70;;;;;;;21.40;100.00;99263.31;5114276;28;20030;-74
2023/08/21 02:24:11;;;;;;;7.70;5.78;;;;;;;21.47;100.00;99280.44;5094595;28;20106;-75
2023/08/21 02:26:36;;;;;;;10.85;5.68;;;;;;;21.42;100.00;99269.38;5085712;28;20020;-75
2023/08/21 02:29:03;;;;;;;10.35;6.45;;;;;;;21.40;100.00;99277.06;5085210;28;20469;-75
2023/08/21 02:31:29;;;;;;;10.23;6.15;;;;;;;21.43;100.00;99287.56;5110385;28;20645;-74
2023/08/21 02:33:54;;;;;;;13.45;5.90;;;;;;;21.40;100.00;99268.81;5089138;28;20039;-74
2023/08/21 02:36:19;;;;;;;12.10;5.75;;;;;;;21.17;100.00;99247.97;5113573;28;20038;-75
2023/08/21 02:38:44;;;;;;;10.25;5.32;;;;;;;21.33;100.00;99273.69;5093950;28;20023;-74
2023/08/21 02:41:10;;;;;;;8.55;5.63;;;;;;;21.33;100.00;99262.69;5088647;28;20020;-74
2023/08/21 02:43:35;;;;;;;7.75;4.97;;;;;;;21.30;100.00;99274.19;5076165;28;20146;-74
2023/08/21 02:46:00;;;;;;;8.85;5.35;;;;;;;21.36;100.00;99284.19;5077381;28;20024;-74
2023/08/21 02:48:26;;;;;;;11.48;5.60;;;;;;;21.14;100.00;99260.31;5092551;28;20532;-75
2023/08/21 02:50:51;;;;;;;9.07;5.90;;;;;;;21.22;100.00;99290.13;5095917;28;20050;-74
2023/08/21 02:53:16;;;;;;;9.93;5.35;;;;;;;21.04;100.00;99274.00;5095768;28;20473;-74
2023/08/21 02:55:41;;;;;;;6.85;5.75;;;;;;;20.99;100.00;99273.94;5094873;28;20087;-75
2023/08/21 02:58:07;;;;;;;7.80;6.30;;;;;;;21.03;100.00;99297.06;5108855;28;20541;-74
2023/08/21 03:00:32;;;;;;;10.10;6.78;;;;;;;20.97;100.00;99285.19;5092976;28;20047;-74
2023/08/21 03:02:57;;;;;;;9.40;6.07;;;;;;;20.95;100.00;99289.28;5083312;28;20031;-76
2023/08/21 03:05:23;;;;;;;15.68;6.60;;;;;;;20.86;100.00;99286.19;5108286;28;20031;-74
2023/08/21 03:07:48;;;;;;;7.50;6.43;;;;;;;20.91;100.00;99293.66;5086986;27;20030;-76
2023/08/21 03:10:13;;;;;;;13.18;6.80;;;;;;;20.83;100.00;99285.84;5088359;28;20572;-75
2023/08/21 03:12:39;;;;;;;10.35;6.43;;;;;;;20.74;100.00;99272.56;5095989;28;20408;-75
2023/08/21 03:15:04;;;;;;;11.65;6.15;;;;;;;20.82;100.00;99286.94;5095499;28;20049;-75
2023/08/21 03:17:30;;;;;;;12.20;5.75;;;;;;;20.76;100.00;99275.91;5093144;28;20028;-75
2023/08/21 03:19:55;;;;;;;8.48;6.10;;;;;;;20.75;100.00;99279.75;5106474;28;20024;-74
2023/08/21 03:22:21;;;;;;;12.13;6.10;;;;;;;20.77;100.00;99277.53;5092436;28;20027;-74
2023/08/21 03:24:46;;;;;;;9.20;6.82;;;;;;;20.72;100.00;99285.75;5077489;28;20016;-75
2023/08/21 03:27:11;;;;;;;11.32;6.60;;;;;;;20.65;100.00;99284.31;5085358;28;20020;-74
2023/08/21 03:29:37;;;;;;;12.95;7.30;;;;;;;20.61;100.00;99294.97;5092995;28;20430;-75
2023/08/21 03:32:02;;;;;;;9.10;6.65;;;;;;;20.61;100.00;99294.97;5087696;28;20019;-74
2023/08/21 03:34:27;;;;;;;11.77;6.78;;;;;;;20.67;100.00;99315.94;5077528;28;20016;-71
2023/08/21 03:36:53;;;;;;;8.68;6.32;;;;;;;20.57;100.00;99296.59;5103495;28;20024;-75
2023/08/21 03:39:18;;;;;;;8.30;6.10;;;;;;;20.54;100.00;99295.19;5096712;28;20388;-77
2023/08/21 03:41:43;;;;;;;9.68;6.32;;;;;;;20.50;100.00;99283.00;5103879;28;20056;-77
2023/08/21 03:44:09;;;;;;;11.80;6.57;;;;;;;20.56;100.00;99295.72;5091861;28;20127;-78
2023/08/21 03:46:34;;;;;;;18.17;6.88;;;;;;;20.61;100.00;99310.63;5088364;28;20020;-76
2023/08/21 03:49:00;;;;;;;9.65;6.93;;;;;;;20.58;100.00;99309.22;5087275;28;20805;-78
2023/08/21 03:51:25;;;;;;;13.77;7.10;;;;;;;20.50;100.00;99296.72;5088866;28;20027;-77
2023/08/21 03:53:51;;;;;;;18.15;7.15;;;;;;;20.45;100.00;99291.16;5089955;28;20065;-79
2023/08/21 03:56:16;;;;;;;9.30;6.80;;;;;;;20.33;100.00;99280.31;5110188;28;20035;-78
2023/08/21 03:58:41;;;;;;;9.32;6.30;;;;;;;20.49;100.00;99308.81;5089832;28;20034;-77
2023/08/21 04:01:07;;;;;;;9.85;6.72;;;;;;;20.38;100.00;99295.19;5091448;28;20053;-78
2023/08/21 04:03:33;;;;;;;12.57;6.25;;;;;;;20.50;100.00;99309.66;5114380;28;20031;-78
2023/08/21 04:05:59;;;;;;;7.85;6.05;;;;;;;20.50;100.00;99320.66;5092968;28;20085;-78
2023/08/21 04:08:24;;;;;;;9.18;6.05;;;;;;;20.42;100.00;99307.34;5107059;28;20020;-77
2023/08/21 04:10:52;;;;;;;11.18;6.50;;;;;;;20.41;100.00;99316.66;5092127;28;20087;-77
2023/08/21 04:13:17;;;;;;;8.73;6.35;;;;;;;20.37;100.00;99324.59;5094288;28;20591;-77
2023/08/21 04:15:46;;;;;;;14.32;6.97;;;;;;;20.34;100.00;99317.69;5112828;28;20124;-72
2023/08/21 04:18:11;;;;;;;9.73;6.82;;;;;;;20.37;100.00;99335.59;5106917;28;20430;-73
2023/08/21 04:20:37;;;;;;;10.05;7.63;;;;;;;20.39;100.00;99335.34;5113279;28;20028;-74
2023/08/21 04:23:02;;;;;;;14.15;6.88;;;;;;;20.27;100.00;99321.72;5115156;28;20178;-72
2023/08/21 04:25:28;;;;;;;8.88;6.75;;;;;;;20.27;100.00;99333.53;5115644;28;20054;-72
2023/08/21 04:27:53;;;;;;;13.70;7.45;;;;;;;20.35;100.00;99335.00;5103930;28;20093;-71
2023/08/21 04:30:18;;;;;;;9.70;6.63;;;;;;;20.42;100.00;99340.34;5094583;28;20043;-72
2023/08/21 04:32:43;;;;;;;9.18;7.07;;;;;;;20.44;100.00;99332.69;5103415;28;20020;-73
2023/08/21 04:35:09;;;;;;;10.80;7.22;;;;;;;20.37;100.00;99327.34;5095321;28;20071;-74
2023/08/21 04:37:34;;;;;;;14.18;6.18;;;;;;;20.41;100.00;99338.66;5104213;28;20412;-71
2023/08/21 04:39:59;;;;;;;9.50;6.80;;;;;;;20.36;100.00;99328.44;5113169;28;20384;-69
2023/08/21 04:42:25;;;;;;;12.90;6.72;;;;;;;20.33;100.00;99327.03;5098050;28;20043;-74
2023/08/21 04:44:50;;;;;;;8.07;6.43;;;;;;;20.35;100.00;99321.28;5114947;28;20476;-69
2023/08/21 04:47:23;;;;;;;11.75;7.43;;;;;;;20.39;100.00;99318.88;5107103;28;20035;-75
2023/08/21 04:49:49;;;;;;;8.75;6.20;;;;;;;20.44;100.00;99305.19;5110375;27;20016;-74
2023/08/21 04:52:14;;;;;;;10.30;6.32;;;;;;;20.55;100.00;99324.31;5088447;28;20020;-73
2023/08/21 04:54:39;;;;;;;8.23;6.28;;;;;;;20.65;100.00;99331.88;5114759;28;20038;-75
2023/08/21 04:57:05;;;;;;;11.10;6.18;;;;;;;20.61;100.00;99324.38;5108566;28;20035;-68
2023/08/21 04:59:30;;;;;;;9.57;5.68;;;;;;;20.92;100.00;99329.16;5105506;28;20529;-69
2023/08/21 05:01:56;;;;;;;13.52;6.70;;;;;;;20.85;100.00;99327.69;5106824;28;20024;-72
2023/08/21 05:04:21;;;;;;;15.18;6.18;;;;;;;20.87;100.00;99325.50;5114638;28;20027;-68
2023/08/21 05:06:46;;;;;;;10.82;6.03;;;;;;;21.09;100.00;99342.81;5114081;28;20110;-69
2023/08/21 05:09:12;;;;;;;8.20;5.60;;;;;;;21.19;100.00;99334.63;5088598;28;20513;-69
2023/08/21 05:11:37;;;;;;;7.10;5.38;;;;;;;21.22;100.00;99325.91;5107878;28;20019;-69
2023/08/21 05:14:02;;;;;;;6.63;5.53;;;;;;;21.32;100.00;99316.06;5104861;28;20046;-75
2023/08/21 05:16:28;;;;;;;9.95;5.38;;;;;;;21.43;100.00;99304.91;5103446;28;20110;-74
2023/08/21 05:18:53;;;;;;;9.52;5.90;;;;;;;21.60;100.00;99312.22;5100128;28;20016;-74
2023/08/21 05:21:18;;;;;;;10.25;5.97;;;;;;;21.75;100.00;99328.03;5093609;28;20028;-67
2023/08/21 05:23:44;;;;;;;7.60;6.15;;;;;;;21.91;100.00;99334.47;5093128;28;20020;-68
2023/08/21 05:26:09;;;;;;;10.88;6.43;;;;;;;22.02;100.00;99337.03;5109808;28;20449;-68
2023/08/21 05:28:34;;;;;;;9.38;6.63;;;;;;;22.06;100.00;99332.66;5099480;27;20053;-68
2023/08/21 05:30:59;;;;;;;10.20;6.50;;;;;;;22.07;100.00;99326.03;5111715;28;20032;-68
2023/08/21 05:33:25;;;;;;;14.10;7.05;;;;;;;22.05;100.00;99324.63;5086602;28;20035;-72
2023/08/21 05:35:50;;;;;;;11.25;6.93;;;;;;;22.00;100.00;99339.22;5101023;28;20020;-74
2023/08/21 05:38:15;;;;;;;12.90;6.95;;;;;;;22.09;100.00;99320.28;5108522;28;20418;-74
2023/08/21 05:40:44;;;;;;;12.35;6.55;;;;;;;22.29;100.00;99316.81;5094268;28;20018;-77
2023/08/21 05:43:10;;;;;;;10.20;6.40;;;;;;;22.48;100.00;99315.25;5095698;28;20063;-75
2023/08/21 05:45:35;;;;;;;12.60;6.38;;;;;;;22.64;100.00;99318.91;5113173;28;20050;-74
2023/08/21 05:48:00;;;;;;;10.25;6.10;;;;;;;22.90;100.00;99305.22;5107494;28;20071;-76
2023/08/21 05:50:25;;;;;;;7.50;5.68;;;;;;;23.17;100.00;99299.50;5092406;28;20019;-75
2023/08/21 05:52:51;;;;;;;9.40;5.72;;;;;;;23.46;100.00;99319.13;5090653;28;20023;-68
2023/08/21 05:55:17;;;;;;;8.68;6.13;;;;;;;23.78;100.00;99305.03;5101019;28;20023;-69
2023/08/21 05:57:43;;;;;;;7.88;6.45;;;;;;;23.93;100.00;99311.66;5098415;28;20024;-70
2023/08/21 06:00:08;;;;;;;9.95;6.45;;;;;;;24.60;100.00;99304.84;5105968;28;20031;-69
2023/08/21 06:02:34;;;;;;;9.32;6.03;;;;;;;26.37;100.00;99307.66;5092308;28;20043;-76
2023/08/21 06:04:59;;;;;;;12.32;5.80;;;;;;;27.92;100.00;99280.09;5113562;28;20031;-76
2023/08/21 06:07:24;;;;;;;6.88;5.20;;;;;;;29.86;100.00;99274.97;5095435;28;20114;-77
2023/08/21 06:09:50;;;;;;;9.32;5.80;;;;;;;30.40;100.00;99270.16;5092045;28;20023;-77
2023/08/21 06:12:15;;;;;;;9.23;5.45;;;;;;;31.63;100.00;99292.34;5104532;28;20064;-77
2023/08/21 06:14:40;;;;;;;7.70;4.72;;;;;;;32.26;100.00;99273.06;5113454;28;20102;-76
2023/08/21 06:17:06;;;;;;;9.70;5.50;;;;;;;33.35;100.00;99285.44;5078584;28;20028;-74
2023/08/21 06:19:31;;;;;;;7.40;4.95;;;;;;;33.82;100.00;99270.28;5107524;28;20016;-74
2023/08/21 06:21:57;;;;;;;8.48;5.13;;;;;;;34.38;100.00;99300.72;5090869;28;20027;-74
2023/08/21 06:24:23;;;;;;;6.38;4.10;;;;;;;34.90;97.31;99295.22;5081454;28;20023;-67
2023/08/21 06:26:49;;;;;;;6.95;4.35;;;;;;;35.52;88.08;99301.47;5107356;27;20465;-68
2023/08/21 06:29:14;;;;;;;8.10;4.40;;;;;;;35.96;83.67;99292.25;5115437;27;20032;-69
2023/08/21 06:31:40;;;;;;;7.32;5.00;;;;;;;36.05;82.68;99300.53;5100170;28;20023;-74
2023/08/21 06:34:05;;;;;;;6.20;4.90;;;;;;;36.25;83.12;99298.66;5094149;28;20020;-74
2023/08/21 06:36:30;;;;;;;9.90;5.00;;;;;;;36.58;80.72;99298.31;5112426;28;20035;-73
2023/08/21 06:38:56;;;;;;;9.60;4.75;;;;;;;37.14;74.80;99292.38;5107271;28;20032;-76
2023/08/21 06:41:21;;;;;;;7.07;4.88;;;;;;;35.98;80.60;99296.34;5086957;28;20038;-75
2023/08/21 06:43:47;;;;;;;10.45;5.40;;;;;;;36.06;78.53;99296.53;5093825;28;20028;-75
2023/08/21 06:46:12;;;;;;;10.82;5.00;;;;;;;37.12;75.29;99289.09;5081315;28;20055;-76
2023/08/21 06:48:40;;;;;;;8.75;5.10;;;;;;;36.32;76.11;99302.50;5102515;28;20039;-76
2023/08/21 06:51:06;;;;;;;11.10;4.40;;;;;;;37.12;74.89;99291.91;5087091;28;20492;-76
2023/08/21 06:53:31;;;;;;;13.30;4.68;;;;;;;38.05;71.32;99298.66;5095315;28;20105;-83
2023/08/21 06:55:56;;;;;;;7.13;4.55;;;;;;;37.69;70.64;99295.94;5108380;28;20492;-77
2023/08/21 06:58:22;;;;;;;9.23;5.07;;;;;;;37.10;70.74;99301.94;5103507;28;20032;-80
2023/08/21 07:00:47;;;;;;;8.10;4.25;;;;;;;38.75;67.47;99308.72;5114461;28;20285;-79
2023/08/21 07:03:14;;;;;;;10.27;4.88;;;;;;;38.38;65.78;99295.19;5095942;27;20086;-77
2023/08/21 07:05:40;;;;;;;8.65;4.90;;;;;;;37.01;71.80;99308.56;5107567;28;20104;-72
2023/08/21 07:08:05;;;;;;;9.57;4.45;;;;;;;37.93;68.34;99303.25;5110873;28;20390;-72
2023/08/21 07:10:36;;;;;;;7.10;5.20;;;;;;;37.90;69.13;99308.84;5112065;28;20026;-75
2023/08/21 07:13:01;;;;;;;7.05;4.70;;;;;;;38.53;66.12;99305.56;5110189;28;20026;-73
2023/08/21 07:15:26;;;;;;;11.23;4.67;;;;;;;40.05;61.12;99303.56;5110410;28;20098;-72
2023/08/21 07:17:51;;;;;;;6.63;4.70;;;;;;;40.16;60.30;99284.63;5106702;28;20289;-73
2023/08/21 07:20:17;;;;;;;5.90;4.83;;;;;;;40.93;56.60;99316.09;5094519;28;20324;-74
2023/08/21 07:22:42;;;;;;;8.87;4.77;;;;;;;40.95;55.51;99310.81;5107960;28;21907;-74
2023/08/21 07:25:08;;;;;;;9.23;4.33;;;;;;;40.75;56.17;99304.63;5111071;28;20288;-78
2023/08/21 07:27:33;;;;;;;9.38;4.50;;;;;;;40.53;56.27;99324.28;5089603;28;20694;-74
2023/08/21 07:29:58;;;;;;;7.28;4.15;;;;;;;41.52;54.19;99304.66;5101014;28;20376;-74
2023/08/21 07:32:24;;;;;;;8.90;4.30;;;;;;;41.36;53.87;99313.50;5108093;27;20465;-75
2023/08/21 07:34:54;;;;;;;6.70;4.37;;;;;;;41.54;53.83;99308.72;5106445;28;20024;-81
2023/08/21 07:37:20;;;;;;;6.22;3.90;;;;;;;42.84;50.35;99304.03;5091605;28;20277;-78
2023/08/21 07:39:45;;;;;;;8.68;4.55;;;;;;;41.75;51.79;99322.19;5107429;28;20393;-74
2023/08/21 07:42:12;;;;;;;6.13;4.32;;;;;;;42.07;51.81;99326.34;5096094;28;20050;-79
2023/08/21 07:44:39;;;;;;;9.05;4.40;;;;;;;42.29;51.25;99325.19;5111181;28;20078;-78
2023/08/21 07:47:05;;;;;;;5.93;3.92;;;;;;;42.27;51.63;99302.00;5085105;28;20024;-80
2023/08/21 07:49:31;;;;;;;9.05;4.45;;;;;;;43.07;50.54;99326.34;5093469;28;20477;-81
2023/08/21 07:51:56;;;;;;;6.35;4.10;;;;;;;42.27;50.61;99319.06;5101964;28;20058;-81
2023/08/21 07:54:21;;;;;;;5.70;3.80;;;;;;;42.88;49.37;99319.09;5098839;28;20028;-81
2023/08/21 07:56:47;;;;;;;8.77;3.77;;;;;;;44.76;45.63;99309.97;5109580;28;20023;-80
2023/08/21 07:59:13;;;;;;;5.75;3.78;;;;;;;43.85;46.10;99322.41;5093093;28;20650;-80
2023/08/21 08:01:38;;;;;;;8.52;3.80;;;;;;;43.02;47.52;99313.34;5107063;28;20034;-74
2023/08/21 08:04:04;;;;;;;4.78;3.08;;;;;;;43.26;48.45;99322.25;5093507;28;20481;-76
2023/08/21 08:06:30;;;;;;;4.53;3.13;;;;;;;44.59;46.61;99325.97;5092583;28;20553;-72
2023/08/21 08:08:55;;;;;;;4.00;3.08;;;;;;;45.03;45.01;99307.22;5114916;28;20452;-78
2023/08/21 08:11:20;;;;;;;5.03;3.57;;;;;;;44.45;44.92;99317.56;5108394;28;20084;-77
2023/08/21 08:13:46;;;;;;;6.78;3.67;;;;;;;44.56;45.95;99306.84;5096651;28;20481;-75
2023/08/21 08:16:11;;;;;;;5.67;3.73;;;;;;;44.63;45.17;99323.91;5108099;28;20477;-77
2023/08/21 08:18:36;;;;;;;3.90;3.00;;;;;;;45.41;44.98;99303.56;5100423;28;20062;-77
2023/08/21 08:21:02;;;;;;;6.67;3.47;;;;;;;44.92;45.06;99317.97;5111468;28;20323;-77
2023/08/21 08:23:27;;;;;;;6.90;3.67;;;;;;;45.00;44.18;99310.94;5091724;28;20023;-78
2023/08/21 08:25:53;;;;;;;6.50;3.70;;;;;;;44.65;44.90;99309.25;5107349;28;20015;-77
2023/08/21 08:28:18;;;;;;;9.60;4.30;;;;;;;43.72;45.53;99312.72;5088025;28;20286;-78
2023/08/21 08:30:43;;;;;;;9.13;2.90;;;;;;;44.50;45.53;99313.44;5084609;28;20016;-77
2023/08/21 08:33:09;;;;;;;6.82;3.40;;;;;;;45.67;44.56;99299.94;5104160;28;20051;-77
2023/08/21 08:35:34;;;;;;;4.23;3.17;;;;;;;46.15;43.38;99309.47;5105902;28;20031;-77
2023/08/21 08:37:59;;;;;;;4.90;3.17;;;;;;;45.50;43.95;99303.81;5082123;28;20288;-77
2023/08/21 08:40:25;;;;;;;6.40;3.30;;;;;;;45.94;43.71;99304.09;5111109;28;20281;-75
2023/08/21 08:42:50;;;;;;;4.43;3.00;;;;;;;47.17;41.81;99301.59;5103308;28;20027;-77
2023/08/21 08:45:28;;;;;;;6.55;3.05;;;;;;;46.11;42.74;99294.41;5089487;28;20350;-71
2023/08/21 08:47:53;;;;;;;5.65;3.20;;;;;;;47.05;40.78;99288.69;5106389;28;20501;-71
2023/08/21 08:50:19;;;;;;;7.35;3.25;;;;;;;46.76;40.84;99303.56;5114854;28;20072;-71
2023/08/21 08:52:45;;;;;;;5.63;3.17;;;;;;;46.26;42.20;99300.72;5114364;27;20110;-71
2023/08/21 08:55:11;;;;;;;4.05;2.88;;;;;;;45.37;42.66;99297.88;5112776;27;20549;-72
2023/08/21 08:57:36;;;;;;;5.68;3.40;;;;;;;46.37;42.67;99303.44;5111901;28;20023;-71
2023/08/21 09:00:04;;;;;;;5.53;2.97;;;;;;;47.74;41.01;99305.28;5107530;27;20028;-71
2023/08/21 09:02:29;;;;;;;7.18;3.33;;;;;;;45.67;41.37;99299.13;5104863;27;20479;-72
2023/08/21 09:04:54;;;;;;;6.80;3.17;;;;;;;46.66;42.16;99295.94;5112045;28;20032;-72
2023/08/21 09:07:20;;;;;;;5.30;3.27;;;;;;;46.94;40.55;99294.63;5112341;28;20285;-71
2023/08/21 09:09:49;;;;;;;5.45;3.20;;;;;;;46.88;41.07;99296.38;5111132;28;20323;-73
2023/08/21 09:12:15;;;;;;;4.97;2.67;;;;;;;47.57;40.47;99288.03;5106836;28;20024;-73
2023/08/21 09:14:42;;;;;;;5.32;2.85;;;;;;;47.05;40.24;99288.69;5095017;28;20217;-72
2023/08/21 09:17:07;;;;;;;3.10;2.67;;;;;;;49.19;39.39;99296.31;5109408;28;20070;-72
2023/08/21 09:19:33;;;;;;;4.65;3.10;;;;;;;48.63;38.51;99293.72;5102766;27;20921;-72
2023/08/21 09:21:58;;;;;;;4.55;3.30;;;;;;;48.88;39.25;99302.47;5107563;28;20073;-72
2023/08/21 09:24:24;;;;;;;5.13;3.22;;;;;;;48.77;37.93;99293.34;5110861;28;20032;-72
2023/08/21 09:26:50;;;;;;;5.65;3.08;;;;;;;49.35;38.48;99286.81;5102178;28;20032;-72
2023/08/21 09:29:16;;;;;;;5.23;2.70;;;;;;;49.59;37.45;99287.31;5111297;28;20061;-72
2023/08/21 09:31:45;;;;;;;5.40;2.97;;;;;;;49.02;37.50;99286.91;5108422;27;20031;-72
2023/08/21 09:34:10;;;;;;;4.97;3.20;;;;;;;47.35;37.92;99284.03;5103774;28;20327;-71
2023/08/21 09:36:39;;;;;;;6.00;2.67;;;;;;;46.36;38.12;99282.59;5112250;27;20036;-72
2023/08/21 09:39:06;;;;;;;4.55;3.30;;;;;;;46.52;38.39;99293.34;5105898;28;20036;-72
2023/08/21 09:41:31;;;;;;;5.30;2.90;;;;;;;48.34;36.95;99291.56;5085450;27;20028;-72
2023/08/21 09:44:00;;;;;;;6.60;3.22;;;;;;;48.27;37.81;99289.72;5112222;28;20087;-72
2023/08/21 09:46:26;;;;;;;4.88;3.00;;;;;;;48.62;37.64;99286.38;5106463;27;20436;-72
2023/08/21 09:48:53;;;;;;;7.22;2.70;;;;;;;47.38;36.15;99289.66;5112420;28;20068;-73
2023/08/21 09:51:18;;;;;;;4.70;2.80;;;;;;;47.70;37.44;99284.50;5097389;28;20016;-72
2023/08/21 09:53:44;;;;;;;4.78;2.85;;;;;;;48.67;35.45;99283.75;5094121;28;20036;-72
2023/08/21 09:56:10;;;;;;;4.13;3.03;;;;;;;46.90;37.02;99273.03;5104991;27;20023;-72
2023/08/21 09:58:36;;;;;;;6.03;3.00;;;;;;;48.61;36.41;99276.16;5108069;27;20027;-72
2023/08/21 10:01:11;;;;;;;4.40;2.83;;;;;;;48.46;37.52;99275.69;5111260;27;20399;-73
2023/08/21 10:03:38;;;;;;;8.95;2.97;;;;;;;49.81;34.63;99275.97;5106245;27;20030;-73
2023/08/21 10:06:06;;;;;;;4.68;2.25;;;;;;;50.72;34.04;99274.63;5095151;27;20078;-72
2023/08/21 10:08:33;;;;;;;4.53;2.78;;;;;;;51.15;33.99;99273.03;5107437;27;20544;-73
2023/08/21 10:11:00;;;;;;;3.67;2.50;;;;;;;51.53;32.82;99269.94;5109395;27;20464;-72
2023/08/21 10:13:25;;;;;;;5.55;2.40;;;;;;;48.25;33.77;99271.31;5103559;28;20074;-72
2023/08/21 10:15:51;;;;;;;4.03;2.42;;;;;;;49.12;34.00;99254.19;5111799;27;20061;-72
2023/08/21 10:18:23;;;;;;;3.70;2.17;;;;;;;48.06;33.87;99268.06;5111242;27;20028;-72
2023/08/21 10:20:49;;;;;;;4.22;2.22;;;;;;;48.20;33.61;99255.44;5080417;28;20425;-72
2023/08/21 10:23:50;;;;;;;4.07;2.60;;;;;;;47.88;34.48;99253.38;5110396;27;20165;-72
2023/08/21 10:26:18;;;;;;;4.43;2.35;;;;;;;48.75;34.35;99247.03;5087005;28;20119;-72
2023/08/21 10:28:52;;;;;;;4.97;2.20;;;;;;;47.87;35.00;99246.00;5109647;28;20028;-72
2023/08/21 10:31:39;;;;;;;5.60;2.35;;;;;;;49.61;33.57;99241.69;5100125;28;20389;-72
2023/08/21 10:34:08;;;;;;;;;;;;;;;50.67;33.25;99246.41;5098770;28;20520;-72
2023/08/21 10:36:42;;;;;;;3.90;2.38;;;;;;;50.61;33.03;99241.22;5106574;27;19943;-72
2023/08/21 10:39:22;;;;;;;3.00;2.00;;;;;;;50.44;32.08;99236.91;5090242;28;20045;-72
2023/08/21 10:42:03;;;;;;;4.30;2.28;;;;;;;50.24;33.24;99227.72;5102197;28;20024;-72
2023/08/21 10:44:51;;;;;;;3.70;2.33;;;;;;;50.44;34.23;99234.03;5108267;28;20031;-74
2023/08/21 10:47:34;;;;;;;3.15;2.58;;;;;;;50.86;33.64;99236.66;5116113;27;20023;-75
2023/08/21 10:50:05;;;;;;;4.30;2.00;;;;;;;52.65;31.39;99240.97;5087617;28;20366;-75
2023/08/21 10:52:35;;;;;;;6.60;2.28;;;;;;;51.57;31.69;99232.28;5100140;28;20516;-73
2023/08/21 10:55:05;;;;;;;4.22;1.95;;;;;;;51.60;31.71;99229.28;5099678;28;20049;-77
2023/08/21 10:57:32;;;;;;;5.43;2.38;;;;;;;51.55;31.92;99231.97;5113250;28;20031;-74
2023/08/21 11:00:03;;;;;;;5.95;2.53;;;;;;;51.61;32.49;99225.09;5101051;28;20030;-76
2023/08/21 11:02:29;;;;;;;3.47;2.30;;;;;;;51.41;31.54;99236.22;5109699;28;20140;-77
2023/08/21 11:04:55;;;;;;;5.13;2.65;;;;;;;49.96;32.22;99222.47;5110859;28;20083;-77
2023/08/21 11:07:21;;;;;;;4.03;2.40;;;;;;;50.98;31.64;99224.22;5111100;28;20510;-78
2023/08/21 11:09:48;;;;;;;6.63;2.63;;;;;;;50.20;33.89;99222.91;5097908;28;20026;-80
2023/08/21 11:12:15;;;;;;;5.43;2.20;;;;;;;51.08;31.66;99236.66;5103000;28;20026;-79
2023/08/21 11:14:41;;;;;;;7.35;2.50;;;;;;;51.57;31.69;99217.88;5096936;28;20019;-74
2023/08/21 11:17:08;;;;;;;7.10;3.00;;;;;;;50.78;32.85;99218.81;5111643;27;20627;-75
2023/08/21 11:19:34;;;;;;;5.57;2.35;;;;;;;51.37;31.62;99224.84;5111379;28;20016;-74
2023/08/21 11:22:03;;;;;;;5.55;2.42;;;;;;;50.16;32.14;99227.97;5111458;28;20488;-74
2023/08/21 11:24:38;;;;;;;5.40;2.33;;;;;;;51.04;32.83;99221.56;5088386;28;20034;-75